createdAt,value
2022-12-18T00:00:08.990Z,81.59
2022-12-18T00:02:41.480Z,81.62
2022-12-18T00:05:09.720Z,82.03
2022-12-18T00:07:37.123Z,82.18
2022-12-18T00:10:05.990Z,82.35
2022-12-18T00:12:32.793Z,81.80
2022-12-18T00:14:59.682Z,81.10
2022-12-18T00:17:27.876Z,80.19
2022-12-18T00:19:55.061Z,79.21
2022-12-18T00:22:22.102Z,79.78
2022-12-18T00:24:48.935Z,79.88
2022-12-18T00:27:15.757Z,79.37
2022-12-18T00:29:42.846Z,79.78
2022-12-18T00:32:09.613Z,80.89
2022-12-18T00:34:38.126Z,81.12
2022-12-18T00:37:05.338Z,79.89
2022-12-18T00:39:32.167Z,81.19
2022-12-18T00:41:59.890Z,82.48
2022-12-18T00:44:26.810Z,82.95
2022-12-18T00:46:53.958Z,83.13
2022-12-18T00:49:21.662Z,83.31
2022-12-18T00:51:49.950Z,82.41
2022-12-18T00:54:17.700Z,81.24
2022-12-18T00:56:49.353Z,81.29
2022-12-18T00:59:18.638Z,80.82
2022-12-18T01:01:46.716Z,80.51
2022-12-18T01:04:14.764Z,80.78
2022-12-18T01:06:43.324Z,80.26
2022-12-18T01:09:12.981Z,79.52
2022-12-18T01:11:40.436Z,79.71
2022-12-18T01:14:07.374Z,81.40
2022-12-18T01:16:34.591Z,81.85
2022-12-18T01:19:01.387Z,81.66
2022-12-18T01:21:28.742Z,82.17
2022-12-18T01:23:57.744Z,81.62
2022-12-18T01:26:26.859Z,81.31
2022-12-18T01:28:55.387Z,81.55
2022-12-18T01:31:27.671Z,81.94
2022-12-18T01:33:56.238Z,81.64
2022-12-18T01:36:26.189Z,80.98
2022-12-18T01:38:54.245Z,80.40
2022-12-18T01:41:25.323Z,81.00
2022-12-18T01:43:57.041Z,80.91
2022-12-18T01:46:28.330Z,81.15
2022-12-18T01:49:00.845Z,81.71
2022-12-18T01:51:29.393Z,81.28
2022-12-18T01:53:58.280Z,80.59
2022-12-18T01:56:25.201Z,80.87
2022-12-18T01:59:03.124Z,80.52
2022-12-18T02:01:33.862Z,79.81
2022-12-18T02:04:21.811Z,79.19
2022-12-18T02:06:58.180Z,79.05
2022-12-18T02:09:36.739Z,79.16
2022-12-18T02:12:14.536Z,79.52
2022-12-18T02:14:52.255Z,78.72
2022-12-18T02:17:23.224Z,78.94
2022-12-18T02:20:13.937Z,79.71
2022-12-18T02:23:01.766Z,80.26
2022-12-18T02:26:01.254Z,80.83
2022-12-18T02:28:37.145Z,81.80
2022-12-18T02:31:15.304Z,81.61
2022-12-18T02:33:45.710Z,81.08
2022-12-18T02:36:17.177Z,80.68
2022-12-18T02:38:47.648Z,80.35
2022-12-18T02:41:19.697Z,79.90
2022-12-18T02:43:57.918Z,79.50
2022-12-18T02:46:33.180Z,79.76
2022-12-18T02:49:16.996Z,80.05
2022-12-18T02:51:56.605Z,79.74
2022-12-18T02:54:46.053Z,79.14
2022-12-18T02:57:24.989Z,79.39
2022-12-18T03:00:02.551Z,80.16
2022-12-18T03:02:40.496Z,79.63
2022-12-18T03:05:17.310Z,80.12
2022-12-18T03:07:56.229Z,81.12
2022-12-18T03:10:30.770Z,82.14
2022-12-18T03:13:09.506Z,81.39
2022-12-18T03:15:43.378Z,81.89
2022-12-18T03:18:20.678Z,82.70
2022-12-18T03:20:52.851Z,81.29
2022-12-18T03:23:29.307Z,80.55
2022-12-18T03:26:07.690Z,79.79
2022-12-18T03:28:48.213Z,79.68
2022-12-18T03:31:17.356Z,79.84
2022-12-18T03:33:52.977Z,80.28
2022-12-18T03:36:26.045Z,81.55
2022-12-18T03:38:53.689Z,85.21
2022-12-18T03:41:33.592Z,84.83
2022-12-18T03:44:30.926Z,85.31
2022-12-18T03:47:11.019Z,85.88
2022-12-18T03:49:48.833Z,86.73
2022-12-18T03:52:28.669Z,85.65
2022-12-18T03:55:01.028Z,84.87
2022-12-18T03:57:33.379Z,83.35
2022-12-18T04:00:12.538Z,84.19
2022-12-18T04:02:57.975Z,83.83
2022-12-18T04:05:38.180Z,83.28
2022-12-18T04:08:06.477Z,83.95
2022-12-18T04:10:38.064Z,85.07
2022-12-18T04:13:05.435Z,85.75
2022-12-18T04:15:37.720Z,86.30
2022-12-18T04:18:08.752Z,86.38
2022-12-18T04:20:42.049Z,87.00
2022-12-18T04:23:09.410Z,86.82
2022-12-18T04:25:38.468Z,87.04
2022-12-18T04:28:09.649Z,87.45
2022-12-18T04:30:39.827Z,87.09
2022-12-18T04:33:13.078Z,87.34
2022-12-18T04:35:40.760Z,87.11
2022-12-18T04:38:09.193Z,87.59
2022-12-18T04:40:36.613Z,87.31
2022-12-18T04:43:06.634Z,86.66
2022-12-18T04:45:34.448Z,86.70
2022-12-18T04:48:03.491Z,85.98
2022-12-18T04:50:31.204Z,85.56
2022-12-18T04:52:58.504Z,85.06
2022-12-18T04:55:25.433Z,85.24
2022-12-18T04:57:52.423Z,85.94
2022-12-18T05:00:19.852Z,86.94
2022-12-18T05:02:46.959Z,86.35
2022-12-18T05:05:15.432Z,86.55
2022-12-18T05:07:42.249Z,86.67
2022-12-18T05:10:10.434Z,86.52
2022-12-18T05:12:37.333Z,86.11
2022-12-18T05:15:05.531Z,86.61
2022-12-18T05:17:32.670Z,87.08
2022-12-18T05:19:59.409Z,86.35
2022-12-18T05:22:27.763Z,86.39
2022-12-18T05:24:54.621Z,84.74
2022-12-18T05:27:21.652Z,84.96
2022-12-18T05:29:48.412Z,83.96
2022-12-18T05:32:16.195Z,83.86
2022-12-18T05:34:42.968Z,83.52
2022-12-18T05:37:10.021Z,83.08
2022-12-18T05:39:38.078Z,81.95
2022-12-18T05:42:05.184Z,81.50
2022-12-18T05:44:33.168Z,81.31
2022-12-18T05:46:59.928Z,80.90
2022-12-18T05:49:27.522Z,80.71
2022-12-18T05:51:54.327Z,80.50
2022-12-18T05:54:21.226Z,81.06
2022-12-18T05:56:49.523Z,82.15
2022-12-18T05:59:16.380Z,83.34
2022-12-18T06:01:43.304Z,83.37
2022-12-18T06:04:10.135Z,85.61
2022-12-18T06:06:37.060Z,85.41
2022-12-18T06:09:04.667Z,85.75
2022-12-18T06:11:31.888Z,88.56
2022-12-18T06:14:00.833Z,88.10
2022-12-18T06:16:29.238Z,88.91
2022-12-18T06:18:57.858Z,90.68
2022-12-18T06:21:24.749Z,89.30
2022-12-18T06:23:51.767Z,87.25
2022-12-18T06:26:21.079Z,85.35
2022-12-18T06:28:51.530Z,85.01
2022-12-18T06:31:19.651Z,83.94
2022-12-18T06:33:46.694Z,83.52
2022-12-18T06:36:14.537Z,83.25
2022-12-18T06:38:43.898Z,82.74
2022-12-18T06:41:14.012Z,81.80
2022-12-18T06:43:41.226Z,81.38
2022-12-18T06:46:10.348Z,80.64
2022-12-18T06:48:39.049Z,81.61
2022-12-18T06:51:06.131Z,81.56
2022-12-18T06:53:34.634Z,81.12
2022-12-18T06:56:07.861Z,81.40
2022-12-18T06:58:36.914Z,81.14
2022-12-18T07:01:07.137Z,80.41
2022-12-18T07:03:34.091Z,80.47
2022-12-18T07:06:03.016Z,79.78
2022-12-18T07:08:30.287Z,80.00
2022-12-18T07:10:57.248Z,80.07
2022-12-18T07:13:24.391Z,82.04
2022-12-18T07:15:51.473Z,82.45
2022-12-18T07:18:18.281Z,82.55
2022-12-18T07:20:45.026Z,81.87
2022-12-18T07:23:14.469Z,82.49
2022-12-18T07:25:41.357Z,83.50
2022-12-18T07:28:10.604Z,83.22
2022-12-18T07:30:41.363Z,82.58
2022-12-18T07:33:08.901Z,81.04
2022-12-18T07:35:35.598Z,81.28
2022-12-18T07:38:02.518Z,80.10
2022-12-18T07:40:31.006Z,83.20
2022-12-18T07:42:57.910Z,81.69
2022-12-18T07:45:24.968Z,79.52
2022-12-18T07:47:52.244Z,73.83
2022-12-18T07:50:19.270Z,76.18
2022-12-18T07:52:46.245Z,75.41
2022-12-18T07:55:13.012Z,72.85
2022-12-18T07:57:50.431Z,72.14
2022-12-18T08:00:18.876Z,72.82
2022-12-18T08:02:45.838Z,75.34
2022-12-18T08:05:13.058Z,73.35
2022-12-18T08:07:40.321Z,72.27
2022-12-18T08:10:08.689Z,70.96
2022-12-18T08:12:35.942Z,68.84
2022-12-18T08:15:05.005Z,68.91
2022-12-18T08:17:33.043Z,67.87
2022-12-18T08:19:59.800Z,65.03
2022-12-18T08:22:26.893Z,63.89
2022-12-18T08:24:53.994Z,60.93
2022-12-18T08:27:28.771Z,60.09
2022-12-18T08:29:56.417Z,57.74
2022-12-18T08:32:25.439Z,57.21
2022-12-18T08:34:52.356Z,56.03
2022-12-18T08:37:19.303Z,55.67
2022-12-18T08:39:46.125Z,54.59
2022-12-18T08:42:13.170Z,54.42
2022-12-18T08:44:40.164Z,52.39
2022-12-18T08:47:08.062Z,51.39
2022-12-18T08:49:36.617Z,50.85
2022-12-18T08:52:04.334Z,49.93
2022-12-18T08:54:31.261Z,49.50
2022-12-18T08:56:58.083Z,48.41
2022-12-18T08:59:24.891Z,48.02
2022-12-18T09:01:54.259Z,48.07
2022-12-18T09:04:21.172Z,46.99
2022-12-18T09:06:50.516Z,45.98
2022-12-18T09:09:17.634Z,45.41
2022-12-18T09:11:44.461Z,44.14
2022-12-18T09:14:11.566Z,43.57
2022-12-18T09:16:40.103Z,42.83
2022-12-18T09:19:07.478Z,42.17
2022-12-18T09:21:37.101Z,42.87
2022-12-18T09:24:08.011Z,42.21
2022-12-18T09:26:36.598Z,42.88
2022-12-18T09:29:04.015Z,45.29
2022-12-18T09:31:31.039Z,46.12
2022-12-18T09:33:58.231Z,48.86
2022-12-18T09:36:25.123Z,51.23
2022-12-18T09:38:52.166Z,50.83
2022-12-18T09:41:41.700Z,51.68
2022-12-18T09:44:21.282Z,53.67
2022-12-18T09:47:01.461Z,55.51
2022-12-18T09:49:34.195Z,57.57
2022-12-18T09:52:09.475Z,58.73
2022-12-18T09:54:41.302Z,59.13
2022-12-18T09:57:16.051Z,59.78
2022-12-18T09:59:47.458Z,60.55
2022-12-18T10:02:18.142Z,60.70
2022-12-18T10:04:56.064Z,61.53
2022-12-18T10:07:41.257Z,61.79
2022-12-18T10:10:20.673Z,61.78
2022-12-18T10:13:04.791Z,60.90
2022-12-18T10:15:40.980Z,61.10
2022-12-18T10:18:30.283Z,61.23
2022-12-18T10:21:07.873Z,61.33
2022-12-18T10:23:52.741Z,60.32
2022-12-18T10:26:19.809Z,59.27
2022-12-18T10:28:51.992Z,57.64
2022-12-18T10:31:24.890Z,56.47
2022-12-18T10:33:54.047Z,52.05
2022-12-18T10:36:21.842Z,47.76
2022-12-18T10:38:50.643Z,47.01
2022-12-18T10:41:29.360Z,49.11
2022-12-18T10:46:56.383Z,50.02
2022-12-18T10:49:27.813Z,50.79
2022-12-18T10:52:13.584Z,50.61
2022-12-18T10:54:41.324Z,49.76
2022-12-18T10:57:35.208Z,47.40
2022-12-18T11:00:26.253Z,46.04
2022-12-18T11:02:55.295Z,45.52
2022-12-18T11:05:30.072Z,45.33
2022-12-18T11:07:58.413Z,45.22
2022-12-18T11:10:32.388Z,45.19
2022-12-18T11:13:13.363Z,46.41
2022-12-18T11:15:42.432Z,49.58
2022-12-18T11:18:21.196Z,52.31
2022-12-18T11:20:58.480Z,58.92
2022-12-18T11:23:26.944Z,56.86
2022-12-18T11:25:58.606Z,56.89
2022-12-18T11:28:47.301Z,59.19
2022-12-18T11:31:25.521Z,59.42
2022-12-18T11:34:27.927Z,58.81
2022-12-18T11:36:53.358Z,55.73
2022-12-18T11:39:32.487Z,55.35
2022-12-18T11:42:13.320Z,57.83
2022-12-18T11:44:49.430Z,61.02
2022-12-18T11:47:39.766Z,62.07
2022-12-18T11:50:22.505Z,59.26
2022-12-18T11:52:55.643Z,57.51
2022-12-18T11:55:40.757Z,58.63
2022-12-18T11:58:31.561Z,60.52
2022-12-18T12:01:16.406Z,58.29
2022-12-18T12:04:20.458Z,57.36
2022-12-18T12:07:05.699Z,57.20
2022-12-18T12:09:47.244Z,57.73
2022-12-18T12:12:37.566Z,57.92
2022-12-18T12:15:18.195Z,59.21
2022-12-18T12:17:57.968Z,61.25
2022-12-18T12:20:46.846Z,62.49
2022-12-18T12:23:31.157Z,62.90
2022-12-18T12:26:05.224Z,61.88
2022-12-18T12:28:57.202Z,61.61
2022-12-18T12:31:46.526Z,59.22
2022-12-18T12:34:22.904Z,60.22
2022-12-18T12:37:11.883Z,59.37
2022-12-18T12:39:45.295Z,60.33
2022-12-18T12:42:32.036Z,60.57
2022-12-18T12:45:06.686Z,60.11
2022-12-18T12:47:43.177Z,58.97
2022-12-18T12:50:19.942Z,57.31
2022-12-18T12:52:55.388Z,57.12
2022-12-18T12:55:27.664Z,56.94
2022-12-18T12:58:09.279Z,58.86
2022-12-18T13:00:48.906Z,61.14
2022-12-18T13:03:40.757Z,61.83
2022-12-18T13:06:18.311Z,62.23
2022-12-18T13:09:00.745Z,63.30
2022-12-18T13:11:44.701Z,61.98
2022-12-18T13:14:24.690Z,61.57
2022-12-18T13:16:52.572Z,61.94
2022-12-18T13:19:24.697Z,64.04
2022-12-18T13:21:55.855Z,64.71
2022-12-18T13:24:28.785Z,64.90
2022-12-18T13:26:57.638Z,67.26
2022-12-18T13:29:43.746Z,67.49
2022-12-18T13:32:23.980Z,68.22
2022-12-18T13:35:40.014Z,67.54
2022-12-18T13:38:24.005Z,66.80
2022-12-18T13:40:57.235Z,66.35
2022-12-18T13:43:33.272Z,66.91
2022-12-18T13:46:04.295Z,67.08
2022-12-18T13:48:37.141Z,67.98
2022-12-18T13:51:08.382Z,69.09
2022-12-18T13:53:44.889Z,69.89
2022-12-18T13:56:17.506Z,69.26
2022-12-18T13:58:46.352Z,70.06
2022-12-18T14:01:23.844Z,70.13
2022-12-18T14:03:51.241Z,69.36
2022-12-18T14:06:18.510Z,69.79
2022-12-18T14:08:47.263Z,70.69
2022-12-18T14:11:23.890Z,71.19
2022-12-18T14:13:54.764Z,71.66
2022-12-18T14:16:23.044Z,71.43
2022-12-18T14:18:55.196Z,71.65
2022-12-18T14:21:28.732Z,71.26
2022-12-18T14:24:13.067Z,71.73
2022-12-18T14:26:40.260Z,71.74
2022-12-18T14:29:25.177Z,72.95
2022-12-18T14:32:17.569Z,72.77
2022-12-18T14:34:47.143Z,72.26
2022-12-18T14:37:16.316Z,73.42
2022-12-18T14:39:55.104Z,74.36
2022-12-18T14:42:22.073Z,73.26
2022-12-18T14:45:13.072Z,73.26
2022-12-18T14:47:37.613Z,73.81
2022-12-18T14:50:14.415Z,73.61
2022-12-18T14:52:41.504Z,73.74
2022-12-18T14:55:18.406Z,72.84
2022-12-18T14:57:49.569Z,72.92
2022-12-18T15:00:22.832Z,72.90
2022-12-18T15:02:55.939Z,73.92
2022-12-18T15:05:28.970Z,73.35
2022-12-18T15:08:00.491Z,73.54
2022-12-18T15:10:30.493Z,73.94
2022-12-18T15:13:17.501Z,74.00
2022-12-18T15:15:49.856Z,74.91
2022-12-18T15:18:20.436Z,74.15
2022-12-18T15:20:51.177Z,75.22
2022-12-18T15:23:23.125Z,75.00
2022-12-18T15:25:58.801Z,75.56
2022-12-18T15:28:32.144Z,76.31
2022-12-18T15:31:29.852Z,76.07
2022-12-18T15:34:12.583Z,76.68
2022-12-18T15:36:39.995Z,76.21
2022-12-18T15:39:07.088Z,76.25
2022-12-18T15:41:36.686Z,76.74
2022-12-18T15:44:22.589Z,77.06
2022-12-18T15:46:50.680Z,77.12
2022-12-18T15:49:17.580Z,76.50
2022-12-18T15:51:44.864Z,77.45
2022-12-18T15:54:15.865Z,77.28
2022-12-18T15:56:44.962Z,77.04
2022-12-18T15:59:15.626Z,77.21
2022-12-18T16:01:46.140Z,77.59
2022-12-18T16:04:17.205Z,79.02
2022-12-18T16:07:13.193Z,79.57
2022-12-18T16:09:31.344Z,79.11
2022-12-18T16:11:58.748Z,78.94
2022-12-18T16:14:28.817Z,78.01
2022-12-18T16:16:58.561Z,78.68
2022-12-18T16:19:28.026Z,78.20
2022-12-18T16:21:58.545Z,79.09
2022-12-18T16:24:29.443Z,79.35
2022-12-18T16:27:00.111Z,79.14
2022-12-18T16:29:29.566Z,78.85
2022-12-18T16:31:56.925Z,78.94
2022-12-18T16:34:28.733Z,79.68
2022-12-18T16:37:01.695Z,78.83
2022-12-18T16:39:32.267Z,79.42
2022-12-18T16:41:59.136Z,79.31
2022-12-18T16:44:27.685Z,78.95
2022-12-18T16:46:54.556Z,79.84
2022-12-18T16:49:22.038Z,79.24
2022-12-18T16:51:50.166Z,79.33
2022-12-18T16:54:20.033Z,79.41
2022-12-18T16:56:47.388Z,80.19
2022-12-18T16:59:14.161Z,80.14
2022-12-18T17:01:41.513Z,79.33
2022-12-18T17:04:09.662Z,79.11
2022-12-18T17:06:41.791Z,79.48
2022-12-18T17:09:14.621Z,79.00
2022-12-18T17:11:41.800Z,78.96
2022-12-18T17:14:11.074Z,78.91
2022-12-18T17:16:37.966Z,78.67
2022-12-18T17:19:09.776Z,77.80
2022-12-18T17:21:40.473Z,77.69
2022-12-18T17:24:07.994Z,78.12
2022-12-18T17:26:37.529Z,78.59
2022-12-18T17:29:04.413Z,78.21
2022-12-18T17:31:32.613Z,78.27
2022-12-18T17:34:02.438Z,79.07
2022-12-18T17:36:31.709Z,79.10
2022-12-18T17:39:11.041Z,78.32
2022-12-18T17:41:44.465Z,78.08
2022-12-18T17:44:11.423Z,78.00
2022-12-18T17:46:38.274Z,77.88
2022-12-18T17:49:07.499Z,77.79
2022-12-18T17:55:20.845Z,77.58
2022-12-18T17:57:51.982Z,77.57
2022-12-18T18:00:39.486Z,77.22
2022-12-18T18:12:21.763Z,76.58
2022-12-18T18:22:23.049Z,77.37
2022-12-18T18:25:31.325Z,77.04
2022-12-18T18:27:58.376Z,76.92
2022-12-18T18:30:33.407Z,78.23
2022-12-18T18:33:02.214Z,77.23
2022-12-18T18:35:52.809Z,77.10
2022-12-18T18:38:16.517Z,77.56
2022-12-18T18:40:43.380Z,77.21
2022-12-18T18:43:10.514Z,77.30
2022-12-18T18:45:38.802Z,77.04
2022-12-18T18:48:12.636Z,77.70
2022-12-18T18:50:43.551Z,77.62
2022-12-18T18:53:10.374Z,77.02
2022-12-18T18:55:37.235Z,77.72
2022-12-18T18:58:04.262Z,76.56
2022-12-18T19:00:32.888Z,75.72
2022-12-18T19:03:01.385Z,75.48
2022-12-18T19:05:31.105Z,76.02
2022-12-18T19:07:58.022Z,75.68
2022-12-18T19:10:25.119Z,75.88
2022-12-18T19:12:52.145Z,75.89
2022-12-18T19:15:19.193Z,75.62
2022-12-18T19:17:47.430Z,75.27
2022-12-18T19:20:21.581Z,75.28
2022-12-18T19:22:55.111Z,75.72
2022-12-18T19:25:29.928Z,75.27
2022-12-18T19:28:06.974Z,75.41
2022-12-18T19:30:39.108Z,75.87
2022-12-18T19:33:26.781Z,75.68
2022-12-18T19:35:54.642Z,75.40
2022-12-18T19:38:21.812Z,76.29
2022-12-18T19:40:53.155Z,75.85
2022-12-18T19:43:20.190Z,74.75
2022-12-18T19:45:54.935Z,74.75
2022-12-18T19:48:21.852Z,75.35
2022-12-18T19:50:48.848Z,75.39
2022-12-18T19:53:17.137Z,75.47
2022-12-18T19:55:45.861Z,74.75
2022-12-18T19:58:15.304Z,74.86
2022-12-18T20:00:42.426Z,75.12
2022-12-18T20:03:25.964Z,74.98
2022-12-18T20:06:13.641Z,74.41
2022-12-18T20:08:42.458Z,74.98
2022-12-18T20:11:10.616Z,74.46
2022-12-18T20:13:40.567Z,74.86
2022-12-18T20:16:09.298Z,74.45
2022-12-18T20:18:37.108Z,74.39
2022-12-18T20:21:13.841Z,74.83
2022-12-18T20:23:57.778Z,75.31
2022-12-18T20:26:25.043Z,74.06
2022-12-18T20:29:22.419Z,74.91
2022-12-18T20:32:07.640Z,74.83
2022-12-18T20:34:50.818Z,74.83
2022-12-18T20:37:21.431Z,74.94
2022-12-18T20:40:42.242Z,75.32
2022-12-18T20:43:10.336Z,74.43
2022-12-18T20:45:39.348Z,74.82
2022-12-18T20:48:08.421Z,74.44
2022-12-18T20:50:35.804Z,74.16
2022-12-18T20:53:02.769Z,74.42
2022-12-18T20:55:31.013Z,73.67
2022-12-18T20:57:58.371Z,74.00
2022-12-18T21:00:25.313Z,73.33
2022-12-18T21:02:52.406Z,74.12
2022-12-18T21:05:24.145Z,73.10
2022-12-18T21:07:53.959Z,74.19
2022-12-18T21:10:40.439Z,73.94
2022-12-18T21:13:11.665Z,74.28
2022-12-18T21:21:26.897Z,73.58
2022-12-18T21:24:04.223Z,72.11
2022-12-18T21:26:31.603Z,71.83
2022-12-18T21:29:03.185Z,71.95
2022-12-18T21:31:38.480Z,71.54
2022-12-18T21:34:07.081Z,71.71
2022-12-18T21:36:35.138Z,71.30
2022-12-18T21:39:02.422Z,71.29
2022-12-18T21:41:29.363Z,71.81
2022-12-18T21:43:56.299Z,71.61
2022-12-18T21:46:24.590Z,71.20
2022-12-18T21:48:51.493Z,70.91
2022-12-18T21:51:18.380Z,71.21
2022-12-18T21:53:45.258Z,70.85
2022-12-18T21:56:15.071Z,71.39
2022-12-18T21:58:56.769Z,70.86
2022-12-18T22:01:26.078Z,72.67
2022-12-18T22:04:03.706Z,72.54
2022-12-18T22:06:30.507Z,72.43
2022-12-18T22:08:57.565Z,72.94
2022-12-18T22:11:24.743Z,72.31
2022-12-18T22:13:53.473Z,72.75
2022-12-18T22:16:20.628Z,73.04
2022-12-18T22:18:48.984Z,72.96
2022-12-18T22:21:29.027Z,72.49
2022-12-18T22:23:59.776Z,72.18
2022-12-18T22:26:33.825Z,71.85
2022-12-18T22:29:05.096Z,72.48
2022-12-18T22:31:31.976Z,72.20
2022-12-18T22:34:00.975Z,72.43
2022-12-18T22:36:55.858Z,73.01
2022-12-18T22:39:25.963Z,72.98
2022-12-18T22:41:56.338Z,73.22
2022-12-18T22:44:23.254Z,73.45
2022-12-18T22:47:05.906Z,73.60
2022-12-18T22:49:36.648Z,73.05
2022-12-18T22:52:05.687Z,72.33
2022-12-18T22:54:33.421Z,72.95
2022-12-18T22:57:01.309Z,73.14
2022-12-18T22:59:28.891Z,73.05
2022-12-18T23:01:59.185Z,71.90
2022-12-18T23:04:27.380Z,71.86
2022-12-18T23:06:57.244Z,71.95
2022-12-18T23:09:23.997Z,72.55
2022-12-18T23:11:51.352Z,72.15
2022-12-18T23:14:18.173Z,71.32
2022-12-18T23:16:45.242Z,71.04
2022-12-18T23:19:14.171Z,71.33
2022-12-18T23:21:41.102Z,71.32
2022-12-18T23:24:10.334Z,71.32
2022-12-18T23:26:37.434Z,71.53
2022-12-18T23:29:05.713Z,71.20
2022-12-18T23:31:35.531Z,72.01
2022-12-18T23:34:04.149Z,71.53
2022-12-18T23:36:35.834Z,71.83
2022-12-18T23:39:28.071Z,70.53
2022-12-18T23:41:56.271Z,71.22
2022-12-18T23:44:23.507Z,71.25
2022-12-18T23:46:50.561Z,72.11
2022-12-18T23:49:17.627Z,72.80
2022-12-18T23:51:44.908Z,72.71
2022-12-18T23:54:11.978Z,73.08
2022-12-18T23:56:40.236Z,72.82
2022-12-18T23:59:07.358Z,72.42
